sensor_id;sensor_type;location;lat;lon;timestamp;temperature;humidity
42031;DHT22;27709;52.036;5.906;2023-08-20T00:00:18;19.50;99.90
42031;DHT22;27709;52.036;5.906;2023-08-20T00:02:46;19.40;99.90
42031;DHT22;27709;52.036;5.906;2023-08-20T00:05:12;19.30;99.90
42031;DHT22;27709;52.036;5.906;2023-08-20T00:07:38;19.30;99.90
42031;DHT22;27709;52.036;5.906;2023-08-20T00:10:04;19.30;99.90
42031;DHT22;27709;52.036;5.906;2023-08-20T00:12:30;19.30;99.90
42031;DHT22;27709;52.036;5.906;2023-08-20T00:15:01;19.40;99.90
42031;DHT22;27709;52.036;5.906;2023-08-20T00:17:35;19.50;99.90
42031;DHT22;27709;52.036;5.906;2023-08-20T00:20:03;19.60;99.90
42031;DHT22;27709;52.036;5.906;2023-08-20T00:22:41;19.60;99.90
42031;DHT22;27709;52.036;5.906;2023-08-20T00:25:11;19.60;99.90
42031;DHT22;27709;52.036;5.906;2023-08-20T00:27:38;19.60;99.90
42031;DHT22;27709;52.036;5.906;2023-08-20T00:30:04;19.60;99.90
42031;DHT22;27709;52.036;5.906;2023-08-20T00:32:30;19.60;99.90
42031;DHT22;27709;52.036;5.906;2023-08-20T00:34:55;19.50;99.90
42031;DHT22;27709;52.036;5.906;2023-08-20T00:37:21;19.50;99.90
42031;DHT22;27709;52.036;5.906;2023-08-20T00:39:47;19.40;99.90
42031;DHT22;27709;52.036;5.906;2023-08-20T00:42:12;19.30;99.90
42031;DHT22;27709;52.036;5.906;2023-08-20T00:44:41;19.20;99.90
42031;DHT22;27709;52.036;5.906;2023-08-20T00:47:09;19.20;99.90
42031;DHT22;27709;52.036;5.906;2023-08-20T00:49:35;19.20;99.90
42031;DHT22;27709;52.036;5.906;2023-08-20T00:52:02;19.20;99.90
42031;DHT22;27709;52.036;5.906;2023-08-20T00:54:29;19.20;99.90
42031;DHT22;27709;52.036;5.906;2023-08-20T00:56:55;19.10;99.90
42031;DHT22;27709;52.036;5.906;2023-08-20T00:59:21;19.10;99.90
42031;DHT22;27709;52.036;5.906;2023-08-20T01:01:46;19.10;99.90
42031;DHT22;27709;52.036;5.906;2023-08-20T01:04:12;19.00;99.90
42031;DHT22;27709;52.036;5.906;2023-08-20T01:09:29;19.00;99.90
42031;DHT22;27709;52.036;5.906;2023-08-20T01:11:59;19.00;99.90
42031;DHT22;27709;52.036;5.906;2023-08-20T01:14:25;19.00;99.90
42031;DHT22;27709;52.036;5.906;2023-08-20T01:16:50;19.00;99.90
42031;DHT22;27709;52.036;5.906;2023-08-20T01:19:20;19.00;99.90
42031;DHT22;27709;52.036;5.906;2023-08-20T01:30:25;19.20;99.90
42031;DHT22;27709;52.036;5.906;2023-08-20T01:32:53;19.20;99.90
42031;DHT22;27709;52.036;5.906;2023-08-20T01:35:19;19.20;99.90
42031;DHT22;27709;52.036;5.906;2023-08-20T01:37:45;19.30;99.90
42031;DHT22;27709;52.036;5.906;2023-08-20T01:40:11;19.30;99.90
42031;DHT22;27709;52.036;5.906;2023-08-20T01:42:40;19.30;99.90
42031;DHT22;27709;52.036;5.906;2023-08-20T01:45:06;19.30;99.90
42031;DHT22;27709;52.036;5.906;2023-08-20T01:47:33;19.20;99.90
42031;DHT22;27709;52.036;5.906;2023-08-20T01:49:58;19.20;99.90
42031;DHT22;27709;52.036;5.906;2023-08-20T01:52:24;19.20;99.90
42031;DHT22;27709;52.036;5.906;2023-08-20T01:54:50;19.20;99.90
42031;DHT22;27709;52.036;5.906;2023-08-20T01:57:16;19.20;99.90
42031;DHT22;27709;52.036;5.906;2023-08-20T01:59:42;19.20;99.90
42031;DHT22;27709;52.036;5.906;2023-08-20T02:02:07;19.20;99.90
42031;DHT22;27709;52.036;5.906;2023-08-20T02:04:33;19.20;99.90
42031;DHT22;27709;52.036;5.906;2023-08-20T02:06:59;19.10;99.90
42031;DHT22;27709;52.036;5.906;2023-08-20T02:09:24;19.00;99.90
42031;DHT22;27709;52.036;5.906;2023-08-20T02:11:50;18.90;99.90
42031;DHT22;27709;52.036;5.906;2023-08-20T02:14:16;18.90;99.90
42031;DHT22;27709;52.036;5.906;2023-08-20T02:16:42;18.90;99.90
42031;DHT22;27709;52.036;5.906;2023-08-20T02:19:08;18.90;99.90
42031;DHT22;27709;52.036;5.906;2023-08-20T02:21:34;18.80;99.90
42031;DHT22;27709;52.036;5.906;2023-08-20T02:23:59;18.80;99.90
42031;DHT22;27709;52.036;5.906;2023-08-20T02:26:25;18.80;99.90
42031;DHT22;27709;52.036;5.906;2023-08-20T02:28:50;18.80;99.90
42031;DHT22;27709;52.036;5.906;2023-08-20T02:31:16;18.80;99.90
42031;DHT22;27709;52.036;5.906;2023-08-20T02:33:41;18.70;99.90
42031;DHT22;27709;52.036;5.906;2023-08-20T02:36:07;18.70;99.90
42031;DHT22;27709;52.036;5.906;2023-08-20T02:38:32;18.60;99.90
42031;DHT22;27709;52.036;5.906;2023-08-20T02:40:58;18.60;99.90
42031;DHT22;27709;52.036;5.906;2023-08-20T02:43:24;18.60;99.90
42031;DHT22;27709;52.036;5.906;2023-08-20T02:45:49;18.50;99.90
42031;DHT22;27709;52.036;5.906;2023-08-20T02:48:15;18.40;99.90
42031;DHT22;27709;52.036;5.906;2023-08-20T02:50:41;18.40;99.90
42031;DHT22;27709;52.036;5.906;2023-08-20T02:53:06;18.40;99.90
42031;DHT22;27709;52.036;5.906;2023-08-20T02:55:33;18.40;99.90
42031;DHT22;27709;52.036;5.906;2023-08-20T02:57:59;18.40;99.90
42031;DHT22;27709;52.036;5.906;2023-08-20T03:00:24;18.30;99.90
42031;DHT22;27709;52.036;5.906;2023-08-20T03:02:50;18.30;99.90
42031;DHT22;27709;52.036;5.906;2023-08-20T03:05:16;18.20;99.90
42031;DHT22;27709;52.036;5.906;2023-08-20T03:07:41;18.20;99.90
42031;DHT22;27709;52.036;5.906;2023-08-20T03:10:07;18.20;99.90
42031;DHT22;27709;52.036;5.906;2023-08-20T03:12:32;18.20;99.90
42031;DHT22;27709;52.036;5.906;2023-08-20T03:14:59;18.10;99.90
42031;DHT22;27709;52.036;5.906;2023-08-20T03:17:25;18.00;99.90
42031;DHT22;27709;52.036;5.906;2023-08-20T03:19:55;18.00;99.90
42031;DHT22;27709;52.036;5.906;2023-08-20T03:22:25;18.00;99.90
42031;DHT22;27709;52.036;5.906;2023-08-20T03:24:51;17.90;99.90
42031;DHT22;27709;52.036;5.906;2023-08-20T03:27:17;17.90;99.90
42031;DHT22;27709;52.036;5.906;2023-08-20T03:29:43;17.90;99.90
42031;DHT22;27709;52.036;5.906;2023-08-20T03:32:09;17.90;99.90
42031;DHT22;27709;52.036;5.906;2023-08-20T03:34:35;17.90;99.90
42031;DHT22;27709;52.036;5.906;2023-08-20T03:37:01;17.90;99.90
42031;DHT22;27709;52.036;5.906;2023-08-20T03:39:26;17.90;99.90
42031;DHT22;27709;52.036;5.906;2023-08-20T03:41:52;17.90;99.90
42031;DHT22;27709;52.036;5.906;2023-08-20T03:44:18;18.00;99.90
42031;DHT22;27709;52.036;5.906;2023-08-20T03:46:43;18.00;99.90
42031;DHT22;27709;52.036;5.906;2023-08-20T03:49:09;18.10;99.90
42031;DHT22;27709;52.036;5.906;2023-08-20T03:51:35;18.00;99.90
42031;DHT22;27709;52.036;5.906;2023-08-20T03:54:01;18.10;99.90
42031;DHT22;27709;52.036;5.906;2023-08-20T03:56:26;18.10;99.90
42031;DHT22;27709;52.036;5.906;2023-08-20T03:58:52;18.00;99.90
42031;DHT22;27709;52.036;5.906;2023-08-20T04:01:21;18.00;99.90
42031;DHT22;27709;52.036;5.906;2023-08-20T04:03:46;18.00;99.90
42031;DHT22;27709;52.036;5.906;2023-08-20T04:06:13;17.90;99.90
42031;DHT22;27709;52.036;5.906;2023-08-20T04:08:38;17.90;99.90
42031;DHT22;27709;52.036;5.906;2023-08-20T04:11:04;17.90;99.90
42031;DHT22;27709;52.036;5.906;2023-08-20T04:13:29;17.90;99.90
42031;DHT22;27709;52.036;5.906;2023-08-20T04:15:55;17.90;99.90
42031;DHT22;27709;52.036;5.906;2023-08-20T04:18:21;17.90;99.90
42031;DHT22;27709;52.036;5.906;2023-08-20T04:20:47;17.80;99.90
42031;DHT22;27709;52.036;5.906;2023-08-20T04:23:13;17.80;99.90
42031;DHT22;27709;52.036;5.906;2023-08-20T04:25:38;17.80;99.90
42031;DHT22;27709;52.036;5.906;2023-08-20T04:28:05;17.80;99.90
42031;DHT22;27709;52.036;5.906;2023-08-20T04:30:31;17.70;99.90
42031;DHT22;27709;52.036;5.906;2023-08-20T04:32:56;17.70;99.90
42031;DHT22;27709;52.036;5.906;2023-08-20T04:35:22;17.70;99.90
42031;DHT22;27709;52.036;5.906;2023-08-20T04:37:47;17.70;99.90
42031;DHT22;27709;52.036;5.906;2023-08-20T04:40:13;17.70;99.90
42031;DHT22;27709;52.036;5.906;2023-08-20T04:42:38;17.70;99.90
42031;DHT22;27709;52.036;5.906;2023-08-20T04:45:04;17.70;99.90
42031;DHT22;27709;52.036;5.906;2023-08-20T04:47:30;17.60;99.90
42031;DHT22;27709;52.036;5.906;2023-08-20T04:49:55;17.60;99.90
42031;DHT22;27709;52.036;5.906;2023-08-20T04:52:21;17.60;99.90
42031;DHT22;27709;52.036;5.906;2023-08-20T04:54:47;17.70;99.90
42031;DHT22;27709;52.036;5.906;2023-08-20T04:57:13;17.70;99.90
42031;DHT22;27709;52.036;5.906;2023-08-20T04:59:38;17.70;99.90
42031;DHT22;27709;52.036;5.906;2023-08-20T05:02:04;17.70;99.90
42031;DHT22;27709;52.036;5.906;2023-08-20T05:04:29;17.70;99.90
42031;DHT22;27709;52.036;5.906;2023-08-20T05:06:55;17.80;99.90
42031;DHT22;27709;52.036;5.906;2023-08-20T05:09:21;17.80;99.90
42031;DHT22;27709;52.036;5.906;2023-08-20T05:11:47;17.80;99.90
42031;DHT22;27709;52.036;5.906;2023-08-20T05:14:12;17.90;99.90
42031;DHT22;27709;52.036;5.906;2023-08-20T05:16:38;17.90;99.90
42031;DHT22;27709;52.036;5.906;2023-08-20T05:19:03;17.90;99.90
42031;DHT22;27709;52.036;5.906;2023-08-20T05:21:29;17.90;99.90
42031;DHT22;27709;52.036;5.906;2023-08-20T05:23:54;17.90;99.90
42031;DHT22;27709;52.036;5.906;2023-08-20T05:26:21;17.90;99.90
42031;DHT22;27709;52.036;5.906;2023-08-20T05:28:47;18.00;99.90
42031;DHT22;27709;52.036;5.906;2023-08-20T05:31:13;18.00;99.90
42031;DHT22;27709;52.036;5.906;2023-08-20T05:33:38;18.10;99.90
42031;DHT22;27709;52.036;5.906;2023-08-20T05:36:04;18.20;99.90
42031;DHT22;27709;52.036;5.906;2023-08-20T05:38:29;18.20;99.90
42031;DHT22;27709;52.036;5.906;2023-08-20T05:40:55;18.20;99.90
42031;DHT22;27709;52.036;5.906;2023-08-20T05:43:20;18.30;99.90
42031;DHT22;27709;52.036;5.906;2023-08-20T05:45:46;18.40;99.90
42031;DHT22;27709;52.036;5.906;2023-08-20T05:48:11;18.40;99.90
42031;DHT22;27709;52.036;5.906;2023-08-20T05:50:37;18.50;99.90
42031;DHT22;27709;52.036;5.906;2023-08-20T05:53:03;18.50;99.90
42031;DHT22;27709;52.036;5.906;2023-08-20T05:55:28;18.60;99.90
42031;DHT22;27709;52.036;5.906;2023-08-20T05:57:54;18.70;99.90
42031;DHT22;27709;52.036;5.906;2023-08-20T06:00:19;18.70;99.90
42031;DHT22;27709;52.036;5.906;2023-08-20T06:02:47;18.80;99.90
42031;DHT22;27709;52.036;5.906;2023-08-20T06:05:13;18.90;99.90
42031;DHT22;27709;52.036;5.906;2023-08-20T06:07:39;19.00;99.90
42031;DHT22;27709;52.036;5.906;2023-08-20T06:10:06;19.20;99.90
42031;DHT22;27709;52.036;5.906;2023-08-20T06:12:32;19.40;99.90
42031;DHT22;27709;52.036;5.906;2023-08-20T06:14:58;19.60;99.90
42031;DHT22;27709;52.036;5.906;2023-08-20T06:17:23;19.80;99.90
42031;DHT22;27709;52.036;5.906;2023-08-20T06:19:49;19.90;99.90
42031;DHT22;27709;52.036;5.906;2023-08-20T06:22:14;20.00;99.90
42031;DHT22;27709;52.036;5.906;2023-08-20T06:24:40;20.10;99.90
42031;DHT22;27709;52.036;5.906;2023-08-20T06:27:05;20.80;99.90
42031;DHT22;27709;52.036;5.906;2023-08-20T06:29:31;22.60;99.90
42031;DHT22;27709;52.036;5.906;2023-08-20T06:31:56;24.60;97.00
42031;DHT22;27709;52.036;5.906;2023-08-20T06:34:22;26.30;94.10
42031;DHT22;27709;52.036;5.906;2023-08-20T06:36:48;27.70;92.20
42031;DHT22;27709;52.036;5.906;2023-08-20T06:39:14;28.90;90.50
42031;DHT22;27709;52.036;5.906;2023-08-20T06:41:41;29.90;88.60
42031;DHT22;27709;52.036;5.906;2023-08-20T06:44:06;30.70;84.70
42031;DHT22;27709;52.036;5.906;2023-08-20T06:46:32;31.30;82.70
42031;DHT22;27709;52.036;5.906;2023-08-20T06:48:58;31.90;81.70
42031;DHT22;27709;52.036;5.906;2023-08-20T06:51:23;32.50;79.10
42031;DHT22;27709;52.036;5.906;2023-08-20T06:53:50;33.00;77.70
42031;DHT22;27709;52.036;5.906;2023-08-20T06:56:16;33.50;76.80
42031;DHT22;27709;52.036;5.906;2023-08-20T06:58:42;34.00;74.90
42031;DHT22;27709;52.036;5.906;2023-08-20T07:01:08;34.30;73.30
42031;DHT22;27709;52.036;5.906;2023-08-20T07:03:35;34.60;72.20
42031;DHT22;27709;52.036;5.906;2023-08-20T07:06:01;34.90;71.80
42031;DHT22;27709;52.036;5.906;2023-08-20T07:08:27;35.40;71.70
42031;DHT22;27709;52.036;5.906;2023-08-20T07:10:52;35.70;69.40
42031;DHT22;27709;52.036;5.906;2023-08-20T07:13:18;36.00;69.40
42031;DHT22;27709;52.036;5.906;2023-08-20T07:15:43;36.30;68.20
42031;DHT22;27709;52.036;5.906;2023-08-20T07:18:09;36.70;68.20
42031;DHT22;27709;52.036;5.906;2023-08-20T07:20:41;36.90;66.50
42031;DHT22;27709;52.036;5.906;2023-08-20T07:23:07;37.20;66.20
42031;DHT22;27709;52.036;5.906;2023-08-20T07:25:36;37.50;65.40
42031;DHT22;27709;52.036;5.906;2023-08-20T07:28:01;37.80;65.40
42031;DHT22;27709;52.036;5.906;2023-08-20T07:30:28;38.00;64.40
42031;DHT22;27709;52.036;5.906;2023-08-20T07:32:53;38.20;62.80
42031;DHT22;27709;52.036;5.906;2023-08-20T07:35:19;38.30;63.20
42031;DHT22;27709;52.036;5.906;2023-08-20T07:37:44;38.40;63.10
42031;DHT22;27709;52.036;5.906;2023-08-20T07:40:12;38.70;63.20
42031;DHT22;27709;52.036;5.906;2023-08-20T07:42:42;38.90;61.30
42031;DHT22;27709;52.036;5.906;2023-08-20T07:45:08;39.00;61.50
42031;DHT22;27709;52.036;5.906;2023-08-20T07:47:35;39.10;61.30
42031;DHT22;27709;52.036;5.906;2023-08-20T07:50:01;39.30;60.50
42031;DHT22;27709;52.036;5.906;2023-08-20T07:52:26;39.40;60.40
42031;DHT22;27709;52.036;5.906;2023-08-20T07:54:52;39.60;59.90
42031;DHT22;27709;52.036;5.906;2023-08-20T07:57:18;39.80;60.10
42031;DHT22;27709;52.036;5.906;2023-08-20T07:59:43;39.90;59.10
42031;DHT22;27709;52.036;5.906;2023-08-20T08:02:09;40.00;58.40
42031;DHT22;27709;52.036;5.906;2023-08-20T08:04:35;40.20;58.30
42031;DHT22;27709;52.036;5.906;2023-08-20T08:07:01;40.30;58.20
42031;DHT22;27709;52.036;5.906;2023-08-20T08:09:27;40.40;58.50
42031;DHT22;27709;52.036;5.906;2023-08-20T08:11:53;40.50;59.10
42031;DHT22;27709;52.036;5.906;2023-08-20T08:14:19;40.60;58.20
42031;DHT22;27709;52.036;5.906;2023-08-20T08:16:46;40.70;57.90
42031;DHT22;27709;52.036;5.906;2023-08-20T08:19:11;40.80;56.40
42031;DHT22;27709;52.036;5.906;2023-08-20T08:21:37;40.80;56.70
42031;DHT22;27709;52.036;5.906;2023-08-20T08:24:04;40.80;54.00
42031;DHT22;27709;52.036;5.906;2023-08-20T08:26:30;40.80;55.40
42031;DHT22;27709;52.036;5.906;2023-08-20T08:28:55;40.80;55.20
42031;DHT22;27709;52.036;5.906;2023-08-20T08:31:21;41.00;53.70
42031;DHT22;27709;52.036;5.906;2023-08-20T08:33:46;41.00;52.60
42031;DHT22;27709;52.036;5.906;2023-08-20T08:36:12;40.90;53.50
42031;DHT22;27709;52.036;5.906;2023-08-20T08:38:38;41.10;54.50
42031;DHT22;27709;52.036;5.906;2023-08-20T08:41:04;41.30;53.80
42031;DHT22;27709;52.036;5.906;2023-08-20T08:43:35;41.40;51.90
42031;DHT22;27709;52.036;5.906;2023-08-20T08:46:12;41.50;53.40
42031;DHT22;27709;52.036;5.906;2023-08-20T08:48:43;41.60;52.10
42031;DHT22;27709;52.036;5.906;2023-08-20T08:51:09;41.40;52.10
42031;DHT22;27709;52.036;5.906;2023-08-20T08:53:36;41.50;51.40
42031;DHT22;27709;52.036;5.906;2023-08-20T08:56:02;41.40;51.40
42031;DHT22;27709;52.036;5.906;2023-08-20T08:58:29;41.40;52.30
42031;DHT22;27709;52.036;5.906;2023-08-20T09:00:54;41.50;51.10
42031;DHT22;27709;52.036;5.906;2023-08-20T09:03:20;41.30;48.90
42031;DHT22;27709;52.036;5.906;2023-08-20T09:05:47;41.10;51.40
42031;DHT22;27709;52.036;5.906;2023-08-20T09:08:25;41.10;51.60
42031;DHT22;27709;52.036;5.906;2023-08-20T09:10:52;41.20;51.50
42031;DHT22;27709;52.036;5.906;2023-08-20T09:13:23;41.40;52.10
42031;DHT22;27709;52.036;5.906;2023-08-20T09:15:54;41.30;50.00
42031;DHT22;27709;52.036;5.906;2023-08-20T09:18:20;41.20;51.50
42031;DHT22;27709;52.036;5.906;2023-08-20T09:20:47;41.10;50.80
42031;DHT22;27709;52.036;5.906;2023-08-20T09:23:14;40.70;50.10
42031;DHT22;27709;52.036;5.906;2023-08-20T09:25:41;40.50;51.80
42031;DHT22;27709;52.036;5.906;2023-08-20T09:28:07;40.50;52.80
42031;DHT22;27709;52.036;5.906;2023-08-20T09:30:32;40.60;52.20
42031;DHT22;27709;52.036;5.906;2023-08-20T09:33:10;40.50;53.70
42031;DHT22;27709;52.036;5.906;2023-08-20T09:35:35;40.60;51.90
42031;DHT22;27709;52.036;5.906;2023-08-20T09:38:03;40.60;51.80
42031;DHT22;27709;52.036;5.906;2023-08-20T09:40:29;40.50;52.10
42031;DHT22;27709;52.036;5.906;2023-08-20T09:42:56;40.50;52.30
42031;DHT22;27709;52.036;5.906;2023-08-20T09:45:24;40.30;51.20
42031;DHT22;27709;52.036;5.906;2023-08-20T09:47:54;39.90;51.80
42031;DHT22;27709;52.036;5.906;2023-08-20T09:50:21;39.80;52.50
42031;DHT22;27709;52.036;5.906;2023-08-20T09:52:57;39.60;50.00
42031;DHT22;27709;52.036;5.906;2023-08-20T09:55:32;39.50;52.70
42031;DHT22;27709;52.036;5.906;2023-08-20T09:58:01;39.50;52.00
42031;DHT22;27709;52.036;5.906;2023-08-20T10:00:27;39.40;52.20
42031;DHT22;27709;52.036;5.906;2023-08-20T10:02:54;39.40;52.70
42031;DHT22;27709;52.036;5.906;2023-08-20T10:05:19;39.40;52.20
42031;DHT22;27709;52.036;5.906;2023-08-20T10:07:47;39.10;51.80
42031;DHT22;27709;52.036;5.906;2023-08-20T10:10:13;38.90;52.40
42031;DHT22;27709;52.036;5.906;2023-08-20T10:12:39;38.60;51.50
42031;DHT22;27709;52.036;5.906;2023-08-20T10:15:07;38.30;51.20
42031;DHT22;27709;52.036;5.906;2023-08-20T10:17:34;37.90;52.40
42031;DHT22;27709;52.036;5.906;2023-08-20T10:20:01;37.60;51.80
42031;DHT22;27709;52.036;5.906;2023-08-20T10:22:40;37.50;53.90
42031;DHT22;27709;52.036;5.906;2023-08-20T10:25:06;37.40;55.00
42031;DHT22;27709;52.036;5.906;2023-08-20T10:27:35;37.00;53.80
42031;DHT22;27709;52.036;5.906;2023-08-20T10:30:01;36.60;54.50
42031;DHT22;27709;52.036;5.906;2023-08-20T10:32:45;36.30;53.00
42031;DHT22;27709;52.036;5.906;2023-08-20T10:43:32;34.40;56.50
42031;DHT22;27709;52.036;5.906;2023-08-20T10:46:08;34.10;58.70
42031;DHT22;27709;52.036;5.906;2023-08-20T10:48:35;33.90;57.80
42031;DHT22;27709;52.036;5.906;2023-08-20T10:51:11;33.70;57.20
42031;DHT22;27709;52.036;5.906;2023-08-20T10:53:39;33.50;56.90
42031;DHT22;27709;52.036;5.906;2023-08-20T10:56:15;33.40;57.80
42031;DHT22;27709;52.036;5.906;2023-08-20T10:58:43;33.40;57.70
42031;DHT22;27709;52.036;5.906;2023-08-20T11:01:22;33.40;58.60
42031;DHT22;27709;52.036;5.906;2023-08-20T11:03:49;33.40;59.10
42031;DHT22;27709;52.036;5.906;2023-08-20T11:06:17;33.40;56.00
42031;DHT22;27709;52.036;5.906;2023-08-20T11:08:43;33.40;57.10
42031;DHT22;27709;52.036;5.906;2023-08-20T11:11:10;33.30;56.80
42031;DHT22;27709;52.036;5.906;2023-08-20T11:13:36;33.20;57.60
42031;DHT22;27709;52.036;5.906;2023-08-20T11:16:03;33.20;57.60
42031;DHT22;27709;52.036;5.906;2023-08-20T11:18:30;33.20;56.00
42031;DHT22;27709;52.036;5.906;2023-08-20T11:20:57;33.10;57.20
42031;DHT22;27709;52.036;5.906;2023-08-20T11:23:24;33.00;58.50
42031;DHT22;27709;52.036;5.906;2023-08-20T11:25:50;33.00;57.90
42031;DHT22;27709;52.036;5.906;2023-08-20T11:28:16;33.00;58.00
42031;DHT22;27709;52.036;5.906;2023-08-20T11:30:41;33.00;55.30
42031;DHT22;27709;52.036;5.906;2023-08-20T11:33:07;32.90;56.70
42031;DHT22;27709;52.036;5.906;2023-08-20T11:35:33;32.80;56.30
42031;DHT22;27709;52.036;5.906;2023-08-20T11:37:59;32.80;56.30
42031;DHT22;27709;52.036;5.906;2023-08-20T11:40:25;32.70;56.90
42031;DHT22;27709;52.036;5.906;2023-08-20T11:42:50;32.70;58.40
42031;DHT22;27709;52.036;5.906;2023-08-20T11:45:16;32.60;57.80
42031;DHT22;27709;52.036;5.906;2023-08-20T11:47:42;32.50;58.00
42031;DHT22;27709;52.036;5.906;2023-08-20T11:50:09;32.50;58.90
42031;DHT22;27709;52.036;5.906;2023-08-20T11:52:36;32.60;58.50
42031;DHT22;27709;52.036;5.906;2023-08-20T11:55:02;32.50;57.20
42031;DHT22;27709;52.036;5.906;2023-08-20T11:57:29;32.40;58.30
42031;DHT22;27709;52.036;5.906;2023-08-20T11:59:55;32.50;58.30
42031;DHT22;27709;52.036;5.906;2023-08-20T12:02:25;32.60;57.10
42031;DHT22;27709;52.036;5.906;2023-08-20T12:04:51;32.50;58.40
42031;DHT22;27709;52.036;5.906;2023-08-20T12:07:16;32.60;58.10
42031;DHT22;27709;52.036;5.906;2023-08-20T12:09:42;32.70;58.60
42031;DHT22;27709;52.036;5.906;2023-08-20T12:12:08;32.80;58.50
42031;DHT22;27709;52.036;5.906;2023-08-20T12:14:35;32.80;58.00
42031;DHT22;27709;52.036;5.906;2023-08-20T12:17:01;32.80;58.30
42031;DHT22;27709;52.036;5.906;2023-08-20T12:19:28;32.70;56.10
42031;DHT22;27709;52.036;5.906;2023-08-20T12:21:54;32.50;57.30
42031;DHT22;27709;52.036;5.906;2023-08-20T12:24:19;32.40;57.80
42031;DHT22;27709;52.036;5.906;2023-08-20T12:26:46;32.30;58.20
42031;DHT22;27709;52.036;5.906;2023-08-20T12:29:11;32.30;57.40
42031;DHT22;27709;52.036;5.906;2023-08-20T12:31:37;32.20;56.50
42031;DHT22;27709;52.036;5.906;2023-08-20T12:34:03;32.20;57.20
42031;DHT22;27709;52.036;5.906;2023-08-20T12:36:29;32.10;57.80
42031;DHT22;27709;52.036;5.906;2023-08-20T12:38:55;32.10;57.90
42031;DHT22;27709;52.036;5.906;2023-08-20T12:41:21;32.10;58.70
42031;DHT22;27709;52.036;5.906;2023-08-20T12:43:47;32.10;57.80
42031;DHT22;27709;52.036;5.906;2023-08-20T12:46:13;32.10;57.50
42031;DHT22;27709;52.036;5.906;2023-08-20T12:48:39;32.10;57.90
42031;DHT22;27709;52.036;5.906;2023-08-20T12:51:05;32.10;58.50
42031;DHT22;27709;52.036;5.906;2023-08-20T12:53:31;31.90;58.60
42031;DHT22;27709;52.036;5.906;2023-08-20T12:55:56;31.90;58.70
42031;DHT22;27709;52.036;5.906;2023-08-20T12:58:22;31.80;59.10
42031;DHT22;27709;52.036;5.906;2023-08-20T13:00:48;31.90;58.80
42031;DHT22;27709;52.036;5.906;2023-08-20T13:03:14;31.80;58.20
42031;DHT22;27709;52.036;5.906;2023-08-20T13:05:39;31.80;59.00
42031;DHT22;27709;52.036;5.906;2023-08-20T13:08:05;31.80;58.60
42031;DHT22;27709;52.036;5.906;2023-08-20T13:10:31;31.80;59.10
42031;DHT22;27709;52.036;5.906;2023-08-20T13:13:00;31.90;58.10
42031;DHT22;27709;52.036;5.906;2023-08-20T13:15:26;31.90;59.30
42031;DHT22;27709;52.036;5.906;2023-08-20T13:17:52;32.10;58.90
42031;DHT22;27709;52.036;5.906;2023-08-20T13:20:18;32.00;57.70
42031;DHT22;27709;52.036;5.906;2023-08-20T13:22:48;32.00;58.30
42031;DHT22;27709;52.036;5.906;2023-08-20T13:25:14;32.00;58.90
42031;DHT22;27709;52.036;5.906;2023-08-20T13:27:40;32.10;58.80
42031;DHT22;27709;52.036;5.906;2023-08-20T13:30:06;32.00;58.70
42031;DHT22;27709;52.036;5.906;2023-08-20T13:32:36;32.10;58.90
42031;DHT22;27709;52.036;5.906;2023-08-20T13:35:02;32.10;58.60
42031;DHT22;27709;52.036;5.906;2023-08-20T13:37:30;32.10;58.20
42031;DHT22;27709;52.036;5.906;2023-08-20T13:39:56;32.20;57.20
42031;DHT22;27709;52.036;5.906;2023-08-20T13:42:22;32.10;57.20
42031;DHT22;27709;52.036;5.906;2023-08-20T13:44:48;32.00;58.90
42031;DHT22;27709;52.036;5.906;2023-08-20T13:47:13;31.90;59.30
42031;DHT22;27709;52.036;5.906;2023-08-20T13:49:38;31.70;59.40
42031;DHT22;27709;52.036;5.906;2023-08-20T13:52:04;31.50;59.70
42031;DHT22;27709;52.036;5.906;2023-08-20T13:54:30;31.30;61.10
42031;DHT22;27709;52.036;5.906;2023-08-20T13:56:56;31.10;61.30
42031;DHT22;27709;52.036;5.906;2023-08-20T13:59:22;31.10;61.30
42031;DHT22;27709;52.036;5.906;2023-08-20T14:01:48;31.10;61.30
42031;DHT22;27709;52.036;5.906;2023-08-20T14:04:13;31.20;61.70
42031;DHT22;27709;52.036;5.906;2023-08-20T14:06:39;31.10;61.90
42031;DHT22;27709;52.036;5.906;2023-08-20T14:09:04;31.10;61.10
42031;DHT22;27709;52.036;5.906;2023-08-20T14:11:30;31.00;61.80
42031;DHT22;27709;52.036;5.906;2023-08-20T14:13:56;30.90;62.50
42031;DHT22;27709;52.036;5.906;2023-08-20T14:16:21;30.80;62.20
42031;DHT22;27709;52.036;5.906;2023-08-20T14:18:47;30.70;63.00
42031;DHT22;27709;52.036;5.906;2023-08-20T14:21:12;30.50;63.00
42031;DHT22;27709;52.036;5.906;2023-08-20T14:23:38;30.60;63.60
42031;DHT22;27709;52.036;5.906;2023-08-20T14:26:06;30.70;63.70
42031;DHT22;27709;52.036;5.906;2023-08-20T14:28:32;30.70;64.00
42031;DHT22;27709;52.036;5.906;2023-08-20T14:31:02;30.50;63.00
42031;DHT22;27709;52.036;5.906;2023-08-20T14:33:29;30.20;63.60
42031;DHT22;27709;52.036;5.906;2023-08-20T14:35:54;30.10;62.80
42031;DHT22;27709;52.036;5.906;2023-08-20T14:38:20;30.00;64.20
42031;DHT22;27709;52.036;5.906;2023-08-20T14:40:45;30.00;63.90
42031;DHT22;27709;52.036;5.906;2023-08-20T14:43:11;30.20;63.50
42031;DHT22;27709;52.036;5.906;2023-08-20T14:45:36;30.30;63.00
42031;DHT22;27709;52.036;5.906;2023-08-20T14:48:02;30.40;62.90
42031;DHT22;27709;52.036;5.906;2023-08-20T14:50:28;30.50;63.00
42031;DHT22;27709;52.036;5.906;2023-08-20T14:52:53;30.60;62.00
42031;DHT22;27709;52.036;5.906;2023-08-20T14:55:19;30.70;61.70
42031;DHT22;27709;52.036;5.906;2023-08-20T14:57:45;30.60;62.30
42031;DHT22;27709;52.036;5.906;2023-08-20T15:00:11;30.70;62.70
42031;DHT22;27709;52.036;5.906;2023-08-20T15:02:40;30.80;62.10
42031;DHT22;27709;52.036;5.906;2023-08-20T15:05:05;30.80;61.70
42031;DHT22;27709;52.036;5.906;2023-08-20T15:07:31;30.80;61.00
42031;DHT22;27709;52.036;5.906;2023-08-20T15:09:57;30.80;62.50
42031;DHT22;27709;52.036;5.906;2023-08-20T15:12:22;30.90;61.80
42031;DHT22;27709;52.036;5.906;2023-08-20T15:14:48;31.00;61.90
42031;DHT22;27709;52.036;5.906;2023-08-20T15:17:13;31.00;60.90
42031;DHT22;27709;52.036;5.906;2023-08-20T15:19:39;31.00;62.00
42031;DHT22;27709;52.036;5.906;2023-08-20T15:22:04;30.90;62.70
42031;DHT22;27709;52.036;5.906;2023-08-20T15:24:30;30.70;63.40
42031;DHT22;27709;52.036;5.906;2023-08-20T15:26:56;30.40;63.20
42031;DHT22;27709;52.036;5.906;2023-08-20T15:29:21;30.20;64.60
42031;DHT22;27709;52.036;5.906;2023-08-20T15:31:47;30.30;64.70
42031;DHT22;27709;52.036;5.906;2023-08-20T15:34:14;30.40;64.40
42031;DHT22;27709;52.036;5.906;2023-08-20T15:36:39;30.50;64.00
42031;DHT22;27709;52.036;5.906;2023-08-20T15:39:05;30.50;63.30
42031;DHT22;27709;52.036;5.906;2023-08-20T15:41:31;30.50;63.50
42031;DHT22;27709;52.036;5.906;2023-08-20T15:43:57;30.50;63.40